Time;durP1;ratioP1;P1;durP2;ratioP2;P2;SDS_P1;SDS_P2;PMS_P1;PMS_P2;Temp;Humidity;BMP_temperature;BMP_pressure;BME280_temperature;BME280_humidity;BME280_pressure;Samples;Min_cycle;Max_cycle;Signal;HPM_P1;HPM_P2
2022/05/31 00:01:54;;;;;;;1.00;0.90;;;;;;;19.80;49.06;101434.47;5122560;27;20393;-59
2022/05/31 00:04:19;;;;;;;1.20;0.65;;;;;;;19.78;48.73;101425.69;5085131;28;20028;-59
2022/05/31 00:06:45;;;;;;;1.00;0.70;;;;;;;19.80;49.30;101429.06;5103964;28;20384;-58
2022/05/31 00:09:11;;;;;;;0.70;0.60;;;;;;;19.78;49.08;101422.97;5103718;28;20024;-60
2022/05/31 00:11:37;;;;;;;1.00;0.60;;;;;;;19.75;49.12;101415.19;5117844;28;20028;-58
2022/05/31 00:14:04;;;;;;;1.45;0.77;;;;;;;19.79;49.01;101421.13;5114642;28;20106;-59
2022/05/31 00:16:29;;;;;;;0.77;0.65;;;;;;;19.79;48.98;101421.13;5107126;28;20085;-58
2022/05/31 00:18:54;;;;;;;1.63;0.68;;;;;;;19.78;49.21;101420.28;5111722;28;20023;-58
2022/05/31 00:21:19;;;;;;;1.30;0.90;;;;;;;19.77;49.12;101420.47;5108979;28;20486;-58
2022/05/31 00:23:44;;;;;;;0.82;0.70;;;;;;;19.78;48.80;101419.44;5109387;28;20033;-58
2022/05/31 00:26:10;;;;;;;1.13;0.70;;;;;;;19.78;48.83;101419.44;5097786;28;20066;-59
2022/05/31 00:28:35;;;;;;;1.25;0.70;;;;;;;19.71;48.72;101403.91;5106330;28;20039;-58
2022/05/31 00:31:02;;;;;;;0.82;0.63;;;;;;;19.75;48.97;101420.59;5114154;28;20034;-58
2022/05/31 00:33:27;;;;;;;1.70;0.60;;;;;;;19.77;48.80;101423.16;5108898;28;20239;-58
2022/05/31 00:35:53;;;;;;;1.35;0.60;;;;;;;19.77;49.03;101415.06;5119317;28;20020;-59
2022/05/31 00:38:19;;;;;;;1.70;0.80;;;;;;;19.75;48.59;101415.19;5103159;28;20040;-59
2022/05/31 00:40:44;;;;;;;0.80;0.60;;;;;;;19.74;48.70;101418.91;5068073;28;20518;-59
2022/05/31 00:43:12;;;;;;;0.60;0.60;;;;;;;19.75;48.47;101411.66;5070413;28;20040;-58
2022/05/31 00:45:39;;;;;;;0.70;0.50;;;;;;;19.73;48.40;101409.97;5076485;28;20025;-58
2022/05/31 00:48:11;;;;;;;0.80;0.60;;;;;;;19.75;48.46;101407.09;5073495;28;20032;-58
2022/05/31 00:50:42;;;;;;;2.92;0.70;;;;;;;19.72;48.24;101408.28;5068858;28;20021;-59
2022/05/31 00:53:18;;;;;;;0.82;0.70;;;;;;;19.74;48.12;101413.53;5071538;28;20029;-59
2022/05/31 00:55:52;;;;;;;1.05;0.60;;;;;;;19.73;48.29;101414.53;5075562;28;20089;-58
2022/05/31 00:58:40;;;;;;;0.65;0.50;;;;;;;19.76;47.90;101416.06;5068632;28;20077;-59
2022/05/31 01:01:10;;;;;;;1.00;0.65;;;;;;;19.73;48.15;101415.38;5067504;28;20028;-58
2022/05/31 01:03:37;;;;;;;1.05;0.70;;;;;;;19.72;48.05;101418.25;5075629;28;20028;-59
2022/05/31 01:06:03;;;;;;;0.75;0.60;;;;;;;19.72;47.70;101412.84;5081692;28;20103;-60
2022/05/31 01:08:28;;;;;;;1.15;0.55;;;;;;;19.60;47.92;101395.22;5079390;28;20029;-58
2022/05/31 01:10:54;;;;;;;1.10;0.70;;;;;;;19.71;47.88;101414.69;5077929;28;20025;-59
2022/05/31 01:13:19;;;;;;;0.60;0.50;;;;;;;19.71;47.48;101416.56;5070908;28;20080;-59
2022/05/31 01:15:46;;;;;;;1.73;0.80;;;;;;;19.71;47.47;101413.88;5074158;28;20372;-58
2022/05/31 01:18:12;;;;;;;0.68;0.50;;;;;;;19.71;47.82;101416.56;5065706;28;20854;-59
2022/05/31 01:20:38;;;;;;;0.73;0.57;;;;;;;19.70;47.78;101414.84;5066184;28;20056;-58
2022/05/31 01:23:09;;;;;;;0.95;0.50;;;;;;;19.70;47.58;101415.69;5066616;28;20029;-59
2022/05/31 01:25:49;;;;;;;1.33;0.80;;;;;;;19.70;47.46;101406.75;5066120;28;20078;-59
2022/05/31 01:28:36;;;;;;;0.77;0.60;;;;;;;19.64;47.52;101412.81;5057219;28;20047;-59
2022/05/31 01:31:21;;;;;;;1.17;0.63;;;;;;;19.69;47.18;101399.69;5080833;28;20028;-58
2022/05/31 01:33:52;;;;;;;0.73;0.70;;;;;;;19.68;47.16;101415.03;5064398;28;20025;-58
2022/05/31 01:36:21;;;;;;;1.08;0.60;;;;;;;19.68;47.46;101408.78;5064889;28;20020;-59
2022/05/31 01:38:51;;;;;;;0.60;0.60;;;;;;;19.68;47.30;101408.78;5076890;28;20048;-59
2022/05/31 01:41:28;;;;;;;0.63;0.60;;;;;;;19.67;46.81;101409.78;5071698;28;20024;-58
2022/05/31 01:43:56;;;;;;;0.70;0.50;;;;;;;19.67;47.00;101412.50;5071988;28;20029;-58
2022/05/31 01:46:30;;;;;;;1.35;0.50;;;;;;;19.65;46.90;101409.09;5078542;28;20051;-59
2022/05/31 01:48:56;;;;;;;0.60;0.50;;;;;;;19.66;46.95;101408.09;5074898;28;20390;-59
2022/05/31 01:51:21;;;;;;;0.90;0.57;;;;;;;19.65;47.10;101407.25;5071743;28;20080;-58
2022/05/31 01:53:47;;;;;;;0.68;0.50;;;;;;;19.63;46.81;101406.56;5076953;28;20036;-58
2022/05/31 01:56:13;;;;;;;0.60;0.60;;;;;;;19.64;46.89;101408.25;5079652;28;20050;-59
2022/05/31 01:58:40;;;;;;;0.60;0.50;;;;;;;19.62;46.85;101410.25;5072636;28;20016;-58
2022/05/31 02:01:06;;;;;;;2.38;1.15;;;;;;;19.63;46.87;101406.56;5071076;28;20017;-58
2022/05/31 02:03:32;;;;;;;0.70;0.50;;;;;;;19.64;47.09;101404.72;5075675;28;20021;-58
2022/05/31 02:05:59;;;;;;;1.13;0.60;;;;;;;19.63;46.68;101403.88;5074436;28;20037;-59
2022/05/31 02:08:29;;;;;;;0.52;0.50;;;;;;;19.63;46.84;101398.47;5079817;28;20025;-59
2022/05/31 02:10:56;;;;;;;0.50;0.50;;;;;;;19.62;46.67;101395.91;5065590;28;20019;-59
2022/05/31 02:13:21;;;;;;;0.80;0.68;;;;;;;19.63;46.63;101398.47;5078804;28;20021;-58
2022/05/31 02:15:46;;;;;;;0.80;0.50;;;;;;;19.62;46.41;101398.63;5073146;28;20020;-59
2022/05/31 02:18:14;;;;;;;0.50;0.50;;;;;;;19.62;46.44;101393.22;5084080;28;20362;-59
2022/05/31 02:20:40;;;;;;;0.50;0.50;;;;;;;19.60;46.35;101393.38;5071206;28;20412;-59
2022/05/31 02:23:06;;;;;;;0.73;0.50;;;;;;;19.61;46.69;101389.69;5074308;28;20543;-58
2022/05/31 02:25:31;;;;;;;1.17;0.60;;;;;;;19.61;46.34;101392.38;5082434;28;20385;-59
2022/05/31 02:27:56;;;;;;;0.65;0.60;;;;;;;19.62;46.40;101393.22;5076508;28;20027;-58
2022/05/31 02:30:22;;;;;;;1.05;0.50;;;;;;;19.57;46.35;101384.75;5085199;28;20036;-59
2022/05/31 02:32:47;;;;;;;0.43;0.43;;;;;;;19.61;46.20;101388.84;5078086;28;20041;-59
2022/05/31 02:35:13;;;;;;;0.68;0.52;;;;;;;19.59;46.19;101383.59;5064591;28;20024;-59
2022/05/31 02:37:39;;;;;;;0.75;0.45;;;;;;;19.58;46.35;101387.31;5087128;28;20060;-59
2022/05/31 02:40:06;;;;;;;0.77;0.43;;;;;;;19.59;46.50;101380.06;5102455;28;20063;-59
2022/05/31 02:42:32;;;;;;;0.50;0.45;;;;;;;19.58;46.55;101390.00;5105036;28;20083;-59
2022/05/31 02:44:57;;;;;;;0.60;0.50;;;;;;;19.57;46.35;101380.19;5105329;28;20016;-58
2022/05/31 02:47:23;;;;;;;0.88;0.50;;;;;;;19.58;45.96;101383.72;5106380;28;20024;-58
2022/05/31 02:49:48;;;;;;;0.47;0.47;;;;;;;19.56;46.01;101378.50;5117628;28;20032;-59
2022/05/31 02:52:14;;;;;;;0.88;0.50;;;;;;;19.50;46.23;101376.47;5118591;28;20019;-59
2022/05/31 02:54:39;;;;;;;1.65;0.50;;;;;;;19.56;46.11;101383.06;5110875;28;20164;-59
2022/05/31 02:57:05;;;;;;;0.88;0.55;;;;;;;19.55;46.17;101389.47;5114377;28;20035;-59
2022/05/31 02:59:30;;;;;;;0.60;0.60;;;;;;;19.55;46.00;101384.06;5119121;28;20024;-59
2022/05/31 03:01:55;;;;;;;0.82;0.47;;;;;;;19.56;46.29;101385.75;5111795;28;20116;-59
2022/05/31 03:04:21;;;;;;;0.75;0.50;;;;;;;19.55;46.00;101381.38;5099835;28;20028;-58
2022/05/31 03:06:46;;;;;;;0.50;0.50;;;;;;;19.54;46.23;101382.38;5111762;28;20031;-59
2022/05/31 03:09:11;;;;;;;1.35;0.60;;;;;;;19.47;45.88;101368.69;5112019;28;20039;-59
2022/05/31 03:11:51;;;;;;;0.73;0.55;;;;;;;19.54;46.16;101375.16;5118794;28;20024;-59
2022/05/31 03:14:53;;;;;;;0.55;0.43;;;;;;;19.53;45.80;101375.28;5099259;28;20015;-59
2022/05/31 03:17:18;;;;;;;0.40;0.40;;;;;;;19.52;45.96;101369.06;5075829;28;20039;-58
2022/05/31 03:20:04;;;;;;;0.63;0.57;;;;;;;19.51;46.29;101364.66;5115746;28;20092;-59
2022/05/31 03:22:35;;;;;;;1.42;0.60;;;;;;;19.49;45.98;101367.50;5111177;28;20083;-59
2022/05/31 03:25:06;;;;;;;0.68;0.60;;;;;;;19.45;46.33;101360.78;5111083;28;20108;-58
2022/05/31 03:27:32;;;;;;;0.95;0.63;;;;;;;19.46;46.16;101358.91;5100474;28;20032;-58
2022/05/31 03:29:59;;;;;;;0.60;0.50;;;;;;;19.48;45.78;101367.69;5091559;28;20039;-58
2022/05/31 03:32:24;;;;;;;1.50;0.70;;;;;;;19.48;46.22;101360.44;5121954;28;20073;-59
2022/05/31 03:34:49;;;;;;;0.63;0.60;;;;;;;19.48;45.92;101367.69;5095663;28;20505;-59
2022/05/31 03:37:15;;;;;;;0.45;0.45;;;;;;;19.48;46.18;101365.81;5128082;27;20027;-59
2022/05/31 03:39:40;;;;;;;1.05;0.60;;;;;;;19.47;45.94;101369.53;5103650;28;20044;-59
2022/05/31 03:42:06;;;;;;;0.52;0.47;;;;;;;19.47;45.69;101364.13;5103767;28;20511;-59
2022/05/31 03:44:31;;;;;;;0.95;0.73;;;;;;;19.48;45.64;101368.53;5103980;28;20458;-59
2022/05/31 03:46:56;;;;;;;0.88;0.57;;;;;;;19.47;45.85;101363.31;5104262;28;20020;-58
2022/05/31 03:49:22;;;;;;;0.43;0.43;;;;;;;19.43;46.11;101361.94;5103222;28;20028;-58
2022/05/31 03:51:47;;;;;;;1.10;0.60;;;;;;;19.46;45.46;101361.63;5104101;28;20069;-58
2022/05/31 03:54:12;;;;;;;0.73;0.55;;;;;;;19.43;46.00;101362.78;5104054;28;20043;-59
2022/05/31 03:56:37;;;;;;;1.20;0.60;;;;;;;19.45;45.96;101363.47;5111174;28;20030;-59
2022/05/31 03:59:03;;;;;;;0.63;0.60;;;;;;;19.45;45.75;101366.16;5110670;28;20050;-59
2022/05/31 04:01:28;;;;;;;0.50;0.50;;;;;;;19.45;46.03;101365.28;5108806;28;20026;-58
2022/05/31 04:03:54;;;;;;;0.55;0.45;;;;;;;19.37;45.92;101349.94;5114828;28;20476;-58
2022/05/31 04:06:19;;;;;;;0.55;0.52;;;;;;;19.44;45.88;101358.22;5110221;28;20079;-59
2022/05/31 04:08:44;;;;;;;0.70;0.63;;;;;;;19.43;45.90;101362.78;5114916;28;20093;-59
2022/05/31 04:11:10;;;;;;;0.63;0.50;;;;;;;19.42;45.93;101371.88;5117789;28;20053;-52
2022/05/31 04:13:35;;;;;;;0.88;0.68;;;;;;;19.42;46.32;101368.34;5102749;28;20020;-55
2022/05/31 04:16:07;;;;;;;0.68;0.60;;;;;;;19.43;46.33;101367.31;5118282;27;20032;-55
2022/05/31 04:18:33;;;;;;;0.98;0.82;;;;;;;19.41;47.08;101361.22;5118561;27;20012;-53
2022/05/31 04:21:00;;;;;;;1.00;0.70;;;;;;;19.40;47.14;101357.69;5117976;28;20035;-53
2022/05/31 04:26:09;;;;;;;0.60;0.55;;;;;;;19.40;46.60;101354.16;5120630;28;20034;-58
2022/05/31 04:28:34;;;;;;;0.70;0.70;;;;;;;19.40;46.85;101363.09;5109529;28;20036;-59
2022/05/31 04:31:00;;;;;;;0.68;0.60;;;;;;;19.39;46.82;101366.78;5110159;28;20024;-58
2022/05/31 04:33:25;;;;;;;0.88;0.70;;;;;;;19.40;46.56;101370.34;5103431;28;20062;-58
2022/05/31 04:36:06;;;;;;;0.77;0.60;;;;;;;19.40;46.52;101375.72;5109020;28;20024;-55
2022/05/31 04:38:33;;;;;;;4.80;1.33;;;;;;;19.38;46.24;101362.41;5111534;28;20046;-52
2022/05/31 04:40:58;;;;;;;0.73;0.60;;;;;;;19.40;46.78;101359.53;5117061;27;20024;-48
2022/05/31 04:43:23;;;;;;;1.00;0.60;;;;;;;19.40;46.66;101359.53;5108731;28;20066;-52
2022/05/31 04:45:49;;;;;;;0.93;0.40;;;;;;;19.41;46.83;101361.22;5119816;27;20028;-49
2022/05/31 04:48:14;;;;;;;1.05;0.60;;;;;;;19.42;46.91;101362.94;5110300;28;20051;-60
2022/05/31 04:50:39;;;;;;;1.30;0.63;;;;;;;19.37;47.25;101358.03;5113080;28;20118;-60
2022/05/31 04:53:05;;;;;;;2.25;0.68;;;;;;;19.40;47.40;101368.47;5112928;28;20149;-60
2022/05/31 04:55:30;;;;;;;0.88;0.82;;;;;;;19.35;47.43;101359.19;5084037;28;20028;-60
2022/05/31 04:57:55;;;;;;;0.60;0.60;;;;;;;19.39;47.53;101360.56;5108331;27;20062;-59
2022/05/31 05:00:21;;;;;;;0.88;0.82;;;;;;;19.39;47.89;101365.94;5110184;28;20020;-60
2022/05/31 05:02:46;;;;;;;0.60;0.57;;;;;;;19.38;47.50;101362.41;5108748;28;20072;-60
2022/05/31 05:05:11;;;;;;;0.88;0.70;;;;;;;19.37;47.77;101360.72;5105363;28;20093;-60
2022/05/31 05:07:37;;;;;;;0.90;0.73;;;;;;;19.37;47.94;101362.56;5107953;27;20031;-60
2022/05/31 05:10:04;;;;;;;0.85;0.75;;;;;;;19.37;47.97;101359.84;5108178;28;20053;-60
2022/05/31 05:12:30;;;;;;;0.70;0.70;;;;;;;19.36;47.68;101355.47;5107942;28;20016;-60
2022/05/31 05:14:55;;;;;;;0.88;0.70;;;;;;;19.30;47.85;101351.59;5107287;28;20028;-59
2022/05/31 05:17:23;;;;;;;0.80;0.65;;;;;;;19.34;47.68;101358.34;5109769;28;20028;-60
2022/05/31 05:19:48;;;;;;;0.50;0.50;;;;;;;19.33;48.05;101353.97;5106791;28;20023;-60
2022/05/31 05:22:13;;;;;;;1.00;0.70;;;;;;;19.31;48.14;101355.97;5106694;28;20103;-60
2022/05/31 05:24:39;;;;;;;0.70;0.70;;;;;;;19.34;48.13;101355.66;5105027;28;20046;-60
2022/05/31 05:27:04;;;;;;;0.73;0.60;;;;;;;19.34;47.69;101352.97;5107389;28;20024;-49
2022/05/31 05:32:13;;;;;;;1.00;0.77;;;;;;;19.29;47.94;101343.66;5105983;28;20161;-61
2022/05/31 05:34:38;;;;;;;1.33;0.75;;;;;;;19.36;48.04;101350.09;5114237;28;20512;-55
2022/05/31 05:37:04;;;;;;;2.78;1.00;;;;;;;19.37;47.74;101341.84;5112308;27;20484;-57
2022/05/31 05:39:29;;;;;;;1.25;0.80;;;;;;;19.38;48.35;101350.78;5109428;28;20144;-58
2022/05/31 05:41:54;;;;;;;2.58;0.60;;;;;;;19.38;47.80;101348.94;5109666;28;20035;-58
2022/05/31 05:44:19;;;;;;;2.05;0.75;;;;;;;19.39;47.92;101344.38;5109502;28;20031;-56
2022/05/31 05:46:45;;;;;;;2.15;0.70;;;;;;;19.39;47.62;101337.13;5087562;28;20032;-57
2022/05/31 05:49:10;;;;;;;0.63;0.63;;;;;;;19.40;47.59;101349.59;5106612;28;20048;-58
2022/05/31 05:51:36;;;;;;;0.82;0.68;;;;;;;19.41;47.49;101347.75;5106053;28;20028;-58
2022/05/31 05:54:02;;;;;;;0.90;0.70;;;;;;;19.41;47.74;101351.31;5089951;28;20027;-56
2022/05/31 05:56:28;;;;;;;1.88;0.77;;;;;;;19.41;47.55;101354.00;5106030;28;20028;-57
2022/05/31 05:58:53;;;;;;;1.30;0.80;;;;;;;19.41;47.62;101351.31;5110550;28;20055;-49
2022/05/31 06:01:24;;;;;;;1.25;0.85;;;;;;;19.41;47.59;101359.41;5121756;27;20028;-54
2022/05/31 06:04:06;;;;;;;2.45;0.68;;;;;;;19.42;47.59;101360.25;5090242;28;20028;-52
2022/05/31 06:06:32;;;;;;;1.58;0.70;;;;;;;19.35;47.77;101338.47;5108372;28;20024;-56
2022/05/31 06:09:10;;;;;;;0.75;0.60;;;;;;;19.42;47.45;101350.31;5090914;27;20031;-54
2022/05/31 06:11:48;;;;;;;1.83;0.80;;;;;;;19.42;47.31;101347.59;5109788;27;20515;-52
2022/05/31 06:14:17;;;;;;;0.60;0.60;;;;;;;19.37;47.71;101339.16;5095385;28;20034;-49
2022/05/31 06:16:48;;;;;;;1.20;0.80;;;;;;;19.42;47.78;101349.47;5112281;28;20081;-58
2022/05/31 06:19:17;;;;;;;1.48;0.90;;;;;;;19.42;47.52;101344.06;5111645;28;20027;-59
2022/05/31 06:21:43;;;;;;;3.22;0.70;;;;;;;19.43;47.53;101340.34;5108601;27;20126;-60
2022/05/31 06:24:09;;;;;;;1.27;0.80;;;;;;;19.40;47.50;101341.50;5107667;28;20134;-52
2022/05/31 06:26:34;;;;;;;0.98;0.63;;;;;;;19.42;47.59;101344.06;5090023;28;20479;-57
2022/05/31 06:28:59;;;;;;;1.40;0.70;;;;;;;19.42;47.53;101339.50;5108566;28;20043;-58
2022/05/31 06:31:24;;;;;;;0.82;0.63;;;;;;;19.42;48.01;101341.38;5109837;28;20028;-58
2022/05/31 06:33:50;;;;;;;1.10;0.60;;;;;;;19.43;47.48;101343.91;5109918;28;20028;-57
2022/05/31 06:36:15;;;;;;;2.17;0.73;;;;;;;19.42;47.12;101339.50;5120824;27;20048;-58
2022/05/31 06:38:41;;;;;;;1.00;0.82;;;;;;;19.43;47.40;101341.19;5112884;28;20444;-58
2022/05/31 06:41:06;;;;;;;1.48;0.80;;;;;;;19.43;47.54;101343.91;5091998;28;20028;-58
2022/05/31 06:43:32;;;;;;;3.55;0.70;;;;;;;19.44;47.64;101342.88;5113998;28;20019;-58
2022/05/31 06:45:57;;;;;;;2.70;1.30;;;;;;;19.44;46.12;101326.69;5116567;28;20524;-60
2022/05/31 06:48:22;;;;;;;2.72;1.02;;;;;;;19.44;46.82;101340.19;5117267;28;20031;-56
2022/05/31 06:50:47;;;;;;;3.20;1.05;;;;;;;19.45;46.72;101343.72;5111657;28;20023;-58
2022/05/31 06:58:41;;;;;;;1.50;1.00;;;;;;;19.41;46.10;101335.13;5116147;28;20027;-59
2022/05/31 07:01:06;;;;;;;1.27;1.02;;;;;;;19.46;46.30;101351.66;5109218;28;20054;-59
2022/05/31 07:03:31;;;;;;;1.60;1.00;;;;;;;19.47;46.31;101347.97;5112345;28;20092;-58
2022/05/31 07:05:58;;;;;;;1.13;1.00;;;;;;;19.48;46.01;101351.50;5113103;28;20452;-58
2022/05/31 07:08:23;;;;;;;2.85;1.10;;;;;;;19.47;46.17;101350.66;5109870;28;20464;-59
2022/05/31 07:10:48;;;;;;;1.60;0.90;;;;;;;19.46;46.18;101345.44;5111202;28;20102;-58
2022/05/31 07:13:13;;;;;;;1.38;1.00;;;;;;;19.47;45.97;101341.72;5107427;28;20630;-58
2022/05/31 07:15:38;;;;;;;2.83;1.05;;;;;;;19.44;46.21;101336.66;5113716;28;20024;-59
2022/05/31 07:18:05;;;;;;;1.80;1.10;;;;;;;19.33;45.95;101323.47;5106020;28;20114;-58
2022/05/31 07:20:31;;;;;;;1.30;1.00;;;;;;;19.48;45.96;101343.41;5108001;28;20034;-59
2022/05/31 07:22:56;;;;;;;1.38;1.20;;;;;;;19.44;45.98;101336.66;5107655;28;20020;-59
2022/05/31 07:25:21;;;;;;;2.17;1.08;;;;;;;19.49;45.61;101339.69;5103826;28;20055;-58
2022/05/31 07:27:46;;;;;;;4.38;1.35;;;;;;;19.46;46.17;101332.78;5103961;28;20024;-56
2022/05/31 07:30:12;;;;;;;1.65;1.20;;;;;;;19.49;46.00;101337.00;5109524;28;20030;-59
2022/05/31 07:32:37;;;;;;;2.45;1.30;;;;;;;19.44;45.96;101328.56;5110598;28;20039;-58
2022/05/31 07:35:03;;;;;;;1.95;1.20;;;;;;;19.47;46.13;101337.19;5114076;28;20157;-59
2022/05/31 07:37:28;;;;;;;1.00;0.90;;;;;;;19.46;46.49;101340.03;5123474;27;20020;-59
2022/05/31 07:39:53;;;;;;;1.58;1.00;;;;;;;19.45;46.61;101339.19;5073168;28;20079;-57
2022/05/31 07:42:18;;;;;;;1.60;1.00;;;;;;;19.42;47.04;101328.72;5074104;28;20025;-58
2022/05/31 07:44:43;;;;;;;1.80;0.85;;;;;;;19.43;46.88;101335.81;5068740;28;20077;-59
2022/05/31 07:47:09;;;;;;;1.50;1.00;;;;;;;19.43;46.90;101326.88;5075530;28;20036;-58
2022/05/31 07:49:34;;;;;;;2.00;1.20;;;;;;;19.43;46.70;101335.81;5069902;28;20016;-59
2022/05/31 07:51:59;;;;;;;1.30;1.00;;;;;;;19.43;46.95;101326.88;5073516;28;20497;-59
2022/05/31 07:54:30;;;;;;;1.50;0.90;;;;;;;19.45;46.74;101330.25;5072539;28;20048;-58
2022/05/31 07:56:55;;;;;;;2.53;1.00;;;;;;;19.45;47.18;101338.34;5071611;28;20024;-58
2022/05/31 07:59:21;;;;;;;2.25;1.00;;;;;;;19.45;46.80;101330.25;5073864;28;20028;-58
2022/05/31 08:01:46;;;;;;;1.15;0.82;;;;;;;19.45;47.05;101332.94;5069708;28;20028;-58
2022/05/31 08:04:13;;;;;;;2.42;0.93;;;;;;;19.45;47.00;101327.53;5074914;28;20024;-59
2022/05/31 08:06:38;;;;;;;1.00;0.90;;;;;;;19.45;46.95;101328.41;5069583;28;20508;-59
2022/05/31 08:09:04;;;;;;;1.80;0.90;;;;;;;19.46;46.68;101331.94;5073456;28;20024;-59
2022/05/31 08:11:31;;;;;;;3.38;1.00;;;;;;;19.45;46.68;101324.84;5070766;28;20051;-59
2022/05/31 08:13:57;;;;;;;1.25;1.00;;;;;;;19.47;46.79;101325.53;5070157;28;20041;-58
2022/05/31 08:16:25;;;;;;;1.73;1.00;;;;;;;19.46;46.76;101330.09;5072621;28;20111;-59
2022/05/31 08:18:50;;;;;;;1.95;1.15;;;;;;;19.47;47.11;101328.25;5068663;28;20076;-59
2022/05/31 08:21:18;;;;;;;0.88;0.80;;;;;;;19.48;46.61;101329.94;5072512;28;20051;-59
2022/05/31 08:23:44;;;;;;;1.00;0.80;;;;;;;19.47;46.78;101325.53;5077709;28;20025;-59
2022/05/31 08:26:09;;;;;;;1.55;1.00;;;;;;;19.41;46.84;101312.69;5062894;28;20470;-59
2022/05/31 08:28:35;;;;;;;1.40;0.70;;;;;;;19.48;46.87;101325.38;5063072;28;20028;-59
2022/05/31 08:31:04;;;;;;;4.82;1.33;;;;;;;19.49;46.27;101329.75;5063266;28;20417;-57
2022/05/31 08:33:29;;;;;;;4.93;2.38;;;;;;;19.48;44.98;101319.13;5062608;28;20028;-59
2022/05/31 08:35:55;;;;;;;4.22;2.53;;;;;;;19.48;44.04;101319.13;5077195;28;20029;-59
2022/05/31 08:38:20;;;;;;;3.85;2.20;;;;;;;19.44;43.15;101312.38;5082308;28;20622;-59
2022/05/31 08:40:58;;;;;;;3.80;2.50;;;;;;;19.45;42.60;101319.44;5108954;28;20062;-60
2022/05/31 08:43:33;;;;;;;7.70;3.30;;;;;;;19.44;42.63;101315.91;5113309;28;20016;-59
2022/05/31 08:46:03;;;;;;;4.07;2.35;;;;;;;19.42;42.91;101315.25;5088660;28;20079;-60
2022/05/31 08:48:35;;;;;;;5.32;1.90;;;;;;;19.44;44.74;101317.78;5112553;28;20054;-58
2022/05/31 08:56:58;;;;;;;2.70;1.40;;;;;;;19.43;45.82;101314.22;5087642;28;20027;-58
2022/05/31 08:59:39;;;;;;;4.05;1.63;;;;;;;19.43;45.93;101314.22;5089171;28;20024;-59
2022/05/31 09:02:20;;;;;;;3.38;1.83;;;;;;;19.44;46.12;101315.91;5095359;28;20028;-59
2022/05/31 09:04:53;;;;;;;3.88;1.48;;;;;;;19.43;46.11;101308.84;5116937;28;20083;-59
2022/05/31 09:07:27;;;;;;;3.60;1.80;;;;;;;19.42;45.67;101309.00;5096772;28;20020;-53
2022/05/31 09:09:57;;;;;;;3.33;1.52;;;;;;;19.43;45.84;101310.69;5090681;28;20024;-55
2022/05/31 09:12:30;;;;;;;3.53;1.90;;;;;;;19.43;46.27;101311.53;5111920;28;20020;-53
2022/05/31 09:15:19;;;;;;;3.15;1.70;;;;;;;19.43;45.91;101308.00;5097997;28;20027;-51
2022/05/31 09:17:59;;;;;;;3.55;1.55;;;;;;;19.42;45.94;101307.16;5077866;28;20103;-53
2022/05/31 09:20:24;;;;;;;3.13;1.35;;;;;;;19.43;46.17;101302.59;5117138;28;20036;-55
2022/05/31 09:22:49;;;;;;;2.97;1.40;;;;;;;19.42;46.19;101298.22;5103090;28;20028;-56
2022/05/31 09:25:15;;;;;;;2.55;1.40;;;;;;;19.43;46.19;101298.06;5107338;28;20473;-55
2022/05/31 09:27:42;;;;;;;3.45;1.45;;;;;;;19.43;45.88;101306.16;5120112;28;20108;-50
2022/05/31 09:30:19;;;;;;;2.85;1.77;;;;;;;19.44;46.25;101299.72;5120064;28;20049;-52
2022/05/31 09:32:50;;;;;;;2.13;1.27;;;;;;;19.44;46.03;101302.44;5113437;28;20425;-52
2022/05/31 09:35:36;;;;;;;3.03;1.50;;;;;;;19.44;46.11;101305.13;5126537;28;20032;-53
2022/05/31 09:38:26;;;;;;;2.35;1.45;;;;;;;19.45;46.07;101305.97;5130226;27;20039;-54
2022/05/31 09:41:05;;;;;;;2.25;1.40;;;;;;;19.40;46.02;101289.44;5105964;28;20093;-54
2022/05/31 09:43:50;;;;;;;2.53;1.33;;;;;;;19.45;46.36;101301.44;5089622;28;20020;-54
2022/05/31 09:46:25;;;;;;;2.30;1.63;;;;;;;19.43;46.19;101295.34;5088564;28;20500;-54
2022/05/31 09:48:52;;;;;;;2.83;1.73;;;;;;;19.44;46.45;101290.81;5119119;28;20027;-55
2022/05/31 09:51:26;;;;;;;1.55;1.27;;;;;;;19.44;46.08;101290.81;5106793;28;20111;-54
2022/05/31 09:59:25;;;;;;;2.95;1.65;;;;;;;19.43;46.28;101300.75;5117680;28;20069;-56
2022/05/31 10:01:51;;;;;;;3.13;1.50;;;;;;;19.43;46.44;101292.66;5115679;28;20370;-53
2022/05/31 10:04:28;;;;;;;2.35;1.70;;;;;;;19.43;46.30;101291.81;5110800;28;20081;-50
2022/05/31 10:07:03;;;;;;;2.63;1.52;;;;;;;19.46;46.43;101295.03;5108986;28;20027;-54
2022/05/31 10:09:32;;;;;;;2.50;1.85;;;;;;;19.48;46.13;101289.47;5109706;28;20024;-55
2022/05/31 10:12:10;;;;;;;3.05;1.40;;;;;;;19.49;46.38;101291.16;5108837;28;20381;-56
2022/05/31 10:14:44;;;;;;;3.75;1.55;;;;;;;19.51;46.37;101294.53;5118328;28;20039;-53
2022/05/31 10:17:29;;;;;;;2.67;1.63;;;;;;;19.52;46.36;101290.84;5119161;28;20151;-52
2022/05/31 10:20:16;;;;;;;2.70;1.50;;;;;;;19.55;46.06;101286.97;5118520;28;20035;-52
2022/05/31 10:23:04;;;;;;;2.20;1.20;;;;;;;19.56;46.16;101280.56;5115133;28;20024;-55
2022/05/31 10:25:33;;;;;;;2.38;1.48;;;;;;;19.57;46.24;101284.94;5111552;28;20057;-55
2022/05/31 10:28:02;;;;;;;4.10;1.63;;;;;;;19.59;46.33;101283.78;5097875;28;20030;-56
2022/05/31 10:30:28;;;;;;;3.47;1.63;;;;;;;19.59;46.44;101280.25;5119792;28;20028;-54
2022/05/31 10:32:56;;;;;;;2.28;1.50;;;;;;;19.61;46.44;101291.75;5113445;28;20016;-54
2022/05/31 10:35:27;;;;;;;2.63;1.73;;;;;;;19.61;46.44;101284.47;5092382;28;20053;-53
2022/05/31 10:38:01;;;;;;;2.03;1.42;;;;;;;19.62;46.26;101290.72;5137457;27;20031;-53
2022/05/31 10:40:35;;;;;;;2.58;1.40;;;;;;;19.61;45.96;101281.78;5111087;28;20478;-55
2022/05/31 10:43:12;;;;;;;2.38;1.60;;;;;;;19.58;46.30;101276.72;5099865;28;20093;-55
2022/05/31 10:45:38;;;;;;;2.05;1.48;;;;;;;19.63;46.36;101285.19;5106908;28;20030;-55
2022/05/31 10:48:03;;;;;;;2.25;1.48;;;;;;;19.65;45.91;101277.75;5118145;28;20024;-55
2022/05/31 10:50:35;;;;;;;2.40;1.52;;;;;;;19.67;46.33;101278.44;5118095;28;20586;-55
2022/05/31 10:53:17;;;;;;;2.88;1.38;;;;;;;19.70;46.34;101288.88;5087521;28;20027;-53
2022/05/31 10:55:50;;;;;;;3.55;2.05;;;;;;;19.71;46.29;101281.66;5087031;28;20023;-55
2022/05/31 10:58:24;;;;;;;2.88;1.40;;;;;;;19.73;46.06;101283.19;5093672;28;20023;-56
2022/05/31 11:01:23;;;;;;;2.60;1.48;;;;;;;19.74;46.20;101286.72;5111160;28;20127;-51
2022/05/31 11:04:02;;;;;;;4.20;1.40;;;;;;;19.75;46.46;101274.91;5104222;28;20812;-54
2022/05/31 11:06:51;;;;;;;1.55;1.42;;;;;;;19.77;46.35;101267.50;5084786;28;20088;-55
2022/05/31 11:12:42;;;;;;;2.08;1.17;;;;;;;19.81;45.96;101273.41;5116283;28;20043;-56
2022/05/31 11:15:19;;;;;;;1.85;1.25;;;;;;;19.81;46.24;101273.41;5099371;28;20091;-55
2022/05/31 11:18:22;;;;;;;4.13;1.48;;;;;;;19.81;46.17;101276.97;5108468;28;20031;-54
2022/05/31 11:21:07;;;;;;;2.03;1.35;;;;;;;19.83;46.32;101276.78;5110828;28;20027;-54
2022/05/31 11:23:52;;;;;;;2.10;1.30;;;;;;;19.78;45.98;101262.94;5074599;28;20070;-56
2022/05/31 11:26:29;;;;;;;2.45;1.58;;;;;;;19.84;46.05;101273.94;5096806;28;20019;-56
2022/05/31 11:29:25;;;;;;;2.05;1.10;;;;;;;19.86;46.11;101271.91;5118892;28;20041;-57
2022/05/31 11:32:28;;;;;;;2.33;1.38;;;;;;;19.88;46.03;101267.19;5109455;28;20024;-57
2022/05/31 11:35:25;;;;;;;3.70;1.50;;;;;;;19.89;46.35;101263.47;5114287;28;20082;-57
2022/05/31 11:38:08;;;;;;;1.92;1.27;;;;;;;19.92;46.02;101256.88;5089630;28;20395;-56
2022/05/31 11:40:41;;;;;;;3.65;1.80;;;;;;;19.92;46.28;101264.97;5098653;28;20066;-57
2022/05/31 11:43:36;;;;;;;2.00;1.10;;;;;;;19.93;46.26;101262.13;5115935;28;20035;-55
2022/05/31 11:46:26;;;;;;;1.88;1.38;;;;;;;19.94;46.29;101268.38;5100134;28;20068;-55
2022/05/31 11:49:07;;;;;;;1.75;1.20;;;;;;;19.93;46.07;101264.84;5108814;28;20038;-54
2022/05/31 11:51:45;;;;;;;2.17;1.35;;;;;;;19.94;46.20;101263.81;5090199;28;20024;-55
2022/05/31 11:54:32;;;;;;;2.10;1.27;;;;;;;19.96;46.14;101255.53;5089116;28;20591;-55
2022/05/31 11:57:08;;;;;;;4.25;1.48;;;;;;;19.96;46.20;101261.81;5113980;28;20035;-56
2022/05/31 12:00:00;;;;;;;1.80;1.20;;;;;;;19.98;46.25;101258.94;5100132;28;20161;-53
2022/05/31 12:02:49;;;;;;;2.60;1.60;;;;;;;19.96;46.57;101250.16;5103790;28;20024;-54